createdAt,value
2023-05-14T00:00:10.774Z,100780.48
2023-05-14T00:02:41.384Z,100774.39
2023-05-14T00:05:13.039Z,100774.40
2023-05-14T00:07:43.548Z,100771.27
2023-05-14T00:10:15.626Z,100771.46
2023-05-14T00:12:46.048Z,100768.85
2023-05-14T00:15:16.423Z,100769.21
2023-05-14T00:17:46.774Z,100765.05
2023-05-14T00:20:17.348Z,100771.88
2023-05-14T00:22:47.729Z,100764.38
2023-05-14T00:25:18.110Z,100763.71
2023-05-14T00:27:48.520Z,100764.27
2023-05-14T00:30:18.846Z,100763.73
2023-05-14T00:32:49.280Z,100770.41
2023-05-14T00:35:21.503Z,100767.78
2023-05-14T00:37:51.911Z,100769.37
2023-05-14T00:40:26.389Z,100770.75
2023-05-14T00:42:57.363Z,100766.92
2023-05-14T00:45:28.445Z,100770.95
2023-05-14T00:47:59.119Z,100766.91
2023-05-14T00:50:29.698Z,100764.50
2023-05-14T00:53:00.396Z,100765.27
2023-05-14T00:55:32.764Z,100766.54
2023-05-14T00:58:05.533Z,100771.45
2023-05-14T01:00:36.253Z,100770.10
2023-05-14T01:03:09.113Z,100769.41
2023-05-14T01:05:47.723Z,100770.65
2023-05-14T01:08:26.339Z,100766.96
2023-05-14T01:11:05.037Z,100765.39
2023-05-14T01:13:43.043Z,100765.05
2023-05-14T01:16:18.831Z,100764.70
2023-05-14T01:18:52.011Z,100762.45
2023-05-14T01:21:34.179Z,100761.77
2023-05-14T01:24:05.246Z,100759.18
2023-05-14T01:26:36.354Z,100757.98
2023-05-14T01:29:14.077Z,100757.82
2023-05-14T01:31:47.072Z,100760.09
2023-05-14T01:34:20.872Z,100759.74
2023-05-14T01:36:53.956Z,100754.68
2023-05-14T01:39:26.103Z,100751.69
2023-05-14T01:41:57.381Z,100750.98
2023-05-14T01:44:27.832Z,100752.36
2023-05-14T01:46:58.215Z,100747.96
2023-05-14T01:49:28.625Z,100744.27
2023-05-14T01:51:59.059Z,100744.08
2023-05-14T01:54:29.423Z,100741.11
2023-05-14T01:56:59.836Z,100744.08
2023-05-14T01:59:30.641Z,100742.33
2023-05-14T02:02:01.093Z,100744.77
2023-05-14T02:04:31.549Z,100738.86
2023-05-14T02:07:02.153Z,100743.75
2023-05-14T02:09:32.532Z,100745.52
2023-05-14T02:12:02.957Z,100742.39
2023-05-14T02:14:33.918Z,100738.56
2023-05-14T02:17:04.564Z,100744.70
2023-05-14T02:19:34.974Z,100742.44
2023-05-14T02:22:05.475Z,100738.77
2023-05-14T02:24:37.733Z,100737.91
2023-05-14T02:27:08.223Z,100737.92
2023-05-14T02:29:38.621Z,100735.51
2023-05-14T02:32:10.218Z,100732.20
2023-05-14T02:34:40.599Z,100730.64
2023-05-14T02:37:11.056Z,100730.30
2023-05-14T02:39:41.431Z,100727.85
2023-05-14T02:42:11.969Z,100727.00
2023-05-14T02:44:42.364Z,100727.35
2023-05-14T02:47:12.792Z,100727.36
2023-05-14T02:49:43.216Z,100728.93
2023-05-14T02:52:13.614Z,100731.39
2023-05-14T02:54:44.092Z,100727.55
2023-05-14T02:57:14.549Z,100734.52
2023-05-14T02:59:44.970Z,100727.90
2023-05-14T03:02:15.785Z,100726.15
2023-05-14T03:04:46.877Z,100725.27
2023-05-14T03:07:17.258Z,100726.52
2023-05-14T03:09:47.599Z,100723.20
2023-05-14T03:12:18.313Z,100730.37
2023-05-14T03:14:48.775Z,100731.06
2023-05-14T03:17:19.189Z,100730.20
2023-05-14T03:19:49.866Z,100728.98
2023-05-14T03:22:20.371Z,100733.86
2023-05-14T03:24:51.527Z,100734.04
2023-05-14T03:27:21.892Z,100733.52
2023-05-14T03:29:52.271Z,100735.63
2023-05-14T03:32:23.518Z,100738.75
2023-05-14T03:34:53.994Z,100741.02
2023-05-14T03:37:26.135Z,100738.58
2023-05-14T03:39:56.527Z,100739.97
2023-05-14T03:42:27.203Z,100741.02
2023-05-14T03:44:57.594Z,100735.92
2023-05-14T03:47:28.099Z,100729.45
2023-05-14T03:49:59.266Z,100724.02
2023-05-14T03:52:29.779Z,100724.88
2023-05-14T03:55:00.201Z,100724.17
2023-05-14T03:57:30.571Z,100721.02
2023-05-14T04:00:00.931Z,100727.99
2023-05-14T04:02:31.501Z,100721.51
2023-05-14T04:05:02.025Z,100725.14
2023-05-14T04:07:32.417Z,100720.23
2023-05-14T04:10:04.323Z,100716.17
2023-05-14T04:12:35.397Z,100712.32
2023-05-14T04:15:08.250Z,100716.98
2023-05-14T04:17:38.864Z,100717.46
2023-05-14T04:20:11.398Z,100716.71
2023-05-14T04:22:42.011Z,100718.58
2023-05-14T04:25:12.606Z,100714.13
2023-05-14T04:27:42.929Z,100713.19
2023-05-14T04:30:14.935Z,100711.36
2023-05-14T04:32:45.604Z,100711.80
2023-05-14T04:35:16.144Z,100709.48
2023-05-14T04:37:46.465Z,100715.38
2023-05-14T04:40:17.691Z,100715.71
2023-05-14T04:42:48.011Z,100713.72
2023-05-14T04:45:18.560Z,100715.40
2023-05-14T04:47:49.082Z,100715.86
2023-05-14T04:50:19.588Z,100713.17
2023-05-14T04:52:50.005Z,100710.83
2023-05-14T04:55:20.409Z,100712.27
2023-05-14T04:57:50.809Z,100705.89
2023-05-14T05:00:22.719Z,100708.81
2023-05-14T05:02:53.305Z,100707.00
2023-05-14T05:05:25.147Z,100706.60
2023-05-14T05:07:56.141Z,100704.77
2023-05-14T05:10:26.813Z,100702.95
2023-05-14T05:12:57.460Z,100696.52
2023-05-14T05:15:27.915Z,100692.61
2023-05-14T05:17:58.236Z,100690.05
2023-05-14T05:20:29.094Z,100689.06
2023-05-14T05:22:59.574Z,100688.27
2023-05-14T05:25:29.872Z,100687.46
2023-05-14T05:28:00.186Z,100684.14
2023-05-14T05:30:31.025Z,100683.38
2023-05-14T05:33:01.960Z,100683.51
2023-05-14T05:35:32.799Z,100679.39
2023-05-14T05:38:03.082Z,100679.64
2023-05-14T05:40:33.809Z,100680.27
2023-05-14T05:43:04.097Z,100676.26
2023-05-14T05:45:34.621Z,100676.64
2023-05-14T05:48:05.648Z,100677.07
2023-05-14T05:50:36.132Z,100679.45
2023-05-14T05:53:06.534Z,100679.41
2023-05-14T05:55:36.930Z,100674.98
2023-05-14T05:58:07.328Z,100677.12
2023-05-14T06:00:37.756Z,100676.98
2023-05-14T06:03:08.283Z,100677.41
2023-05-14T06:05:38.786Z,100678.13
2023-05-14T06:08:09.807Z,100675.86
2023-05-14T06:10:40.311Z,100675.88
2023-05-14T06:13:11.516Z,100673.50
2023-05-14T06:15:42.192Z,100674.20
2023-05-14T06:18:12.702Z,100665.89
2023-05-14T06:20:43.096Z,100661.46
2023-05-14T06:23:13.416Z,100664.23
2023-05-14T06:25:43.794Z,100668.23
2023-05-14T06:28:14.319Z,100666.13
2023-05-14T06:30:44.713Z,100664.68
2023-05-14T06:33:15.097Z,100663.09
2023-05-14T06:35:46.054Z,100662.03
2023-05-14T06:38:16.424Z,100663.15
2023-05-14T06:40:46.827Z,100664.17
2023-05-14T06:43:17.236Z,100667.09
2023-05-14T06:45:51.137Z,100661.39
2023-05-14T06:48:22.145Z,100661.63
2023-05-14T06:50:52.657Z,100657.18
2023-05-14T06:53:22.950Z,100655.90
2023-05-14T06:55:53.254Z,100650.20
2023-05-14T06:58:23.549Z,100643.29
2023-05-14T07:00:53.853Z,100642.25
2023-05-14T07:03:24.271Z,100635.27
2023-05-14T07:05:54.641Z,100630.73
2023-05-14T07:08:24.969Z,100626.35
2023-05-14T07:10:55.375Z,100625.63
2023-05-14T07:13:28.276Z,100625.60
2023-05-14T07:15:59.128Z,100624.06
2023-05-14T07:18:29.475Z,100625.36
2023-05-14T07:20:59.837Z,100622.11
2023-05-14T07:23:30.232Z,100623.58
2023-05-14T07:26:00.628Z,100617.98
2023-05-14T07:28:31.159Z,100612.64
2023-05-14T07:31:01.952Z,100613.83
2023-05-14T07:33:32.462Z,100612.70
2023-05-14T07:36:03.069Z,100609.26
2023-05-14T07:38:34.847Z,100607.35
2023-05-14T07:41:05.734Z,100607.80
2023-05-14T07:43:36.136Z,100605.73
2023-05-14T07:46:06.536Z,100603.95
2023-05-14T07:48:37.364Z,100603.63
2023-05-14T07:51:07.943Z,100601.52
2023-05-14T07:53:38.445Z,100597.59
2023-05-14T07:56:10.501Z,100592.56
2023-05-14T07:58:41.302Z,100593.21
2023-05-14T08:01:12.863Z,100594.06
2023-05-14T08:03:43.390Z,100591.87
2023-05-14T08:06:13.771Z,100590.42
2023-05-14T08:08:44.123Z,100583.98
2023-05-14T08:11:14.502Z,100582.86
2023-05-14T08:13:44.938Z,100583.54
2023-05-14T08:16:15.382Z,100581.60
2023-05-14T08:18:45.779Z,100580.70
2023-05-14T08:21:16.138Z,100577.48
2023-05-14T08:23:46.642Z,100575.60
2023-05-14T08:26:17.006Z,100576.58
2023-05-14T08:28:47.293Z,100574.21
2023-05-14T08:31:17.755Z,100570.52
2023-05-14T08:33:48.753Z,100566.89
2023-05-14T08:36:19.121Z,100567.02
2023-05-14T08:38:50.470Z,100561.63
2023-05-14T08:41:21.747Z,100559.63
2023-05-14T08:44:05.007Z,100556.08
2023-05-14T08:46:37.359Z,100550.27
2023-05-14T08:49:17.050Z,100553.13
2023-05-14T08:51:49.056Z,100546.54
2023-05-14T08:54:22.564Z,100546.00
2023-05-14T08:56:54.223Z,100543.73
2023-05-14T08:59:24.557Z,100538.17
2023-05-14T09:01:57.270Z,100543.15
2023-05-14T09:04:29.698Z,100539.77
2023-05-14T09:07:03.974Z,100530.91
2023-05-14T09:09:34.869Z,100531.04
2023-05-14T09:12:05.747Z,100528.51
2023-05-14T09:14:36.452Z,100526.89
2023-05-14T09:17:07.183Z,100526.84
2023-05-14T09:19:39.131Z,100519.67
2023-05-14T09:22:12.415Z,100520.52
2023-05-14T09:24:43.342Z,100520.36
2023-05-14T09:27:20.397Z,100516.66
2023-05-14T09:29:51.355Z,100514.67
2023-05-14T09:32:21.662Z,100511.02
2023-05-14T09:34:52.034Z,100502.44
2023-05-14T09:37:22.516Z,100496.73
2023-05-14T09:39:52.904Z,100488.40
2023-05-14T09:42:23.226Z,100481.41
2023-05-14T09:44:56.026Z,100475.77
2023-05-14T09:47:27.967Z,100475.34
2023-05-14T09:49:58.537Z,100469.31
2023-05-14T09:52:28.967Z,100465.19
2023-05-14T09:54:59.348Z,100465.97
2023-05-14T09:57:29.982Z,100463.96
2023-05-14T10:00:00.493Z,100468.16
2023-05-14T10:02:37.505Z,100467.15
2023-05-14T10:05:09.564Z,100462.05
2023-05-14T10:07:43.817Z,100458.56
2023-05-14T10:10:17.099Z,100456.91
2023-05-14T10:12:52.058Z,100456.00
2023-05-14T10:15:28.343Z,100455.30
2023-05-14T10:18:04.605Z,100451.05
2023-05-14T10:20:36.079Z,100447.30
2023-05-14T10:23:07.499Z,100447.02
2023-05-14T10:25:38.500Z,100445.42
2023-05-14T10:28:09.358Z,100440.97
2023-05-14T10:30:47.182Z,100439.08
2023-05-14T10:33:19.377Z,100437.70
2023-05-14T10:35:57.891Z,100437.92
2023-05-14T10:38:30.748Z,100434.69
2023-05-14T10:41:04.977Z,100430.33
2023-05-14T10:43:40.592Z,100428.70
2023-05-14T10:46:14.956Z,100421.29
2023-05-14T10:48:46.265Z,100417.50
2023-05-14T10:51:21.092Z,100413.48
2023-05-14T10:53:52.164Z,100416.49
2023-05-14T10:56:22.999Z,100412.87
2023-05-14T10:58:53.365Z,100411.80
2023-05-14T11:01:28.944Z,100412.11
2023-05-14T11:04:00.955Z,100397.41
2023-05-14T11:06:32.325Z,100392.73
2023-05-14T11:09:04.090Z,100393.36
2023-05-14T11:11:35.830Z,100391.55
2023-05-14T11:14:07.981Z,100385.96
2023-05-14T11:16:43.150Z,100385.76
2023-05-14T11:19:18.080Z,100392.48
2023-05-14T11:21:48.827Z,100387.23
2023-05-14T11:24:19.246Z,100387.59
2023-05-14T11:26:49.741Z,100385.04
2023-05-14T11:29:20.088Z,100384.90
2023-05-14T11:31:51.503Z,100383.71
2023-05-14T11:34:21.966Z,100377.70
2023-05-14T11:36:52.335Z,100373.38
2023-05-14T11:39:22.674Z,100368.70
2023-05-14T11:41:53.117Z,100364.81
2023-05-14T11:44:23.723Z,100365.27
2023-05-14T11:46:58.985Z,100362.98
2023-05-14T11:49:30.786Z,100357.41
2023-05-14T11:52:02.271Z,100353.98
2023-05-14T11:54:34.412Z,100351.05
2023-05-14T11:57:12.208Z,100350.98
2023-05-14T11:59:43.303Z,100343.26
2023-05-14T12:02:15.216Z,100345.41
2023-05-14T12:04:50.617Z,100336.59
2023-05-14T12:07:21.345Z,100337.29
2023-05-14T12:09:53.448Z,100337.88
2023-05-14T12:12:27.116Z,100335.81
2023-05-14T12:14:57.508Z,100337.46
2023-05-14T12:17:27.949Z,100338.51
2023-05-14T12:20:00.017Z,100334.96
2023-05-14T12:22:35.121Z,100338.48
2023-05-14T12:25:14.528Z,100330.77
2023-05-14T12:27:46.983Z,100326.67
2023-05-14T12:30:21.856Z,100322.30
2023-05-14T12:32:53.678Z,100315.77
2023-05-14T12:35:24.723Z,100316.63
2023-05-14T12:37:56.962Z,100312.16
2023-05-14T12:40:27.442Z,100310.73
2023-05-14T12:42:57.905Z,100306.86
2023-05-14T12:45:28.362Z,100305.72
2023-05-14T12:47:58.726Z,100305.83
2023-05-14T12:50:29.177Z,100304.69
2023-05-14T12:52:59.608Z,100299.44
2023-05-14T12:55:30.135Z,100291.45
2023-05-14T12:58:04.304Z,100293.41
2023-05-14T13:00:34.714Z,100290.64
2023-05-14T13:03:07.402Z,100287.23
2023-05-14T13:05:38.410Z,100289.41
2023-05-14T13:08:11.104Z,100284.28
2023-05-14T13:10:41.621Z,100278.05
2023-05-14T13:13:13.016Z,100273.06
2023-05-14T13:15:45.680Z,100274.01
2023-05-14T13:18:16.416Z,100276.10
2023-05-14T13:20:50.175Z,100276.41
2023-05-14T13:23:23.249Z,100273.55
2023-05-14T13:25:53.730Z,100266.84
2023-05-14T13:28:26.338Z,100265.09
2023-05-14T13:31:14.422Z,100264.09
2023-05-14T13:33:46.366Z,100261.16
2023-05-14T13:36:17.663Z,100256.35
2023-05-14T13:38:51.972Z,100250.73
2023-05-14T13:41:22.431Z,100247.79
2023-05-14T13:43:53.705Z,100248.15
2023-05-14T13:46:26.345Z,100250.58
2023-05-14T13:48:57.029Z,100246.21
2023-05-14T13:51:27.663Z,100245.27
2023-05-14T13:54:00.043Z,100241.20
2023-05-14T13:56:30.490Z,100235.95
2023-05-14T13:59:00.948Z,100237.60
2023-05-14T14:01:32.143Z,100239.08
2023-05-14T14:04:03.297Z,100237.55
2023-05-14T14:06:34.107Z,100231.89
2023-05-14T14:09:04.494Z,100234.09
2023-05-14T14:11:34.981Z,100233.41
2023-05-14T14:14:05.421Z,100232.58
2023-05-14T14:16:36.332Z,100233.40
2023-05-14T14:19:07.492Z,100237.48
2023-05-14T14:21:39.822Z,100235.98
2023-05-14T14:24:11.868Z,100234.90
2023-05-14T14:26:42.324Z,100231.50
2023-05-14T14:29:12.694Z,100233.83
2023-05-14T14:31:43.666Z,100229.96
2023-05-14T14:34:14.260Z,100229.23
2023-05-14T14:36:44.710Z,100230.03
2023-05-14T14:39:15.032Z,100225.78
2023-05-14T14:41:45.583Z,100227.83
2023-05-14T14:44:18.406Z,100227.12
2023-05-14T14:46:49.457Z,100223.97
2023-05-14T14:49:19.812Z,100228.34
2023-05-14T14:51:50.314Z,100228.27
2023-05-14T14:54:20.669Z,100230.13
2023-05-14T14:56:52.492Z,100224.64
2023-05-14T14:59:23.012Z,100224.14
2023-05-14T15:01:53.368Z,100222.17
2023-05-14T15:04:23.770Z,100216.63
2023-05-14T15:06:54.138Z,100218.78
2023-05-14T15:09:24.477Z,100215.68
2023-05-14T15:11:54.875Z,100212.23
2023-05-14T15:14:25.310Z,100210.84
2023-05-14T15:16:55.736Z,100210.54
2023-05-14T15:19:26.119Z,100209.10
2023-05-14T15:21:56.642Z,100205.58
2023-05-14T15:24:27.203Z,100199.61
2023-05-14T15:26:57.512Z,100200.61
2023-05-14T15:29:28.793Z,100197.66
2023-05-14T15:31:59.328Z,100194.73
2023-05-14T15:34:29.959Z,100190.37
2023-05-14T15:37:00.364Z,100192.05
2023-05-14T15:39:32.841Z,100188.56
2023-05-14T15:42:03.348Z,100190.64
2023-05-14T15:44:34.427Z,100185.46
2023-05-14T15:47:05.791Z,100179.88
2023-05-14T15:49:36.148Z,100175.95
2023-05-14T15:52:07.005Z,100173.57
2023-05-14T15:54:37.346Z,100174.52
2023-05-14T15:57:08.958Z,100173.05
2023-05-14T15:59:39.361Z,100173.44
2023-05-14T16:02:09.928Z,100174.40
2023-05-14T16:04:40.672Z,100174.38
2023-05-14T16:07:12.094Z,100170.46
2023-05-14T16:09:42.548Z,100168.77
2023-05-14T16:12:15.078Z,100163.53
2023-05-14T16:14:46.466Z,100164.05
2023-05-14T16:17:17.050Z,100166.53
2023-05-14T16:19:47.394Z,100166.67
2023-05-14T16:22:17.711Z,100165.51
2023-05-14T16:24:48.067Z,100161.08
2023-05-14T16:27:19.200Z,100156.01
2023-05-14T16:29:49.636Z,100162.11
2023-05-14T16:32:20.239Z,100152.48
2023-05-14T16:34:50.793Z,100147.17
2023-05-14T16:37:21.724Z,100142.22
2023-05-14T16:39:52.095Z,100141.65
2023-05-14T16:42:22.425Z,100139.79
2023-05-14T16:44:52.803Z,100137.13
2023-05-14T16:47:23.157Z,100139.98
2023-05-14T16:49:53.501Z,100146.63
2023-05-14T16:52:23.830Z,100145.81
2023-05-14T16:54:54.208Z,100152.25
2023-05-14T16:57:25.631Z,100152.16
2023-05-14T16:59:56.760Z,100150.39
2023-05-14T17:02:27.125Z,100148.74
2023-05-14T17:04:57.483Z,100141.20
2023-05-14T17:07:28.034Z,100143.02
2023-05-14T17:10:00.023Z,100142.80
2023-05-14T17:12:30.715Z,100146.20
2023-05-14T17:15:04.458Z,100143.86
2023-05-14T17:17:35.952Z,100147.98
2023-05-14T17:20:08.176Z,100141.86
2023-05-14T17:22:38.820Z,100149.81
2023-05-14T17:25:11.175Z,100151.23
2023-05-14T17:27:41.503Z,100146.23
2023-05-14T17:30:13.237Z,100144.20
2023-05-14T17:32:43.729Z,100147.38
2023-05-14T17:35:14.169Z,100147.11
2023-05-14T17:37:44.628Z,100142.27
2023-05-14T17:40:15.799Z,100138.16
2023-05-14T17:42:46.380Z,100134.22
2023-05-14T17:45:20.659Z,100133.83
2023-05-14T17:47:51.604Z,100129.05
2023-05-14T17:50:22.174Z,100129.16
2023-05-14T17:52:52.914Z,100138.63
2023-05-14T17:55:24.113Z,100138.90
2023-05-14T17:57:54.764Z,100138.29
2023-05-14T18:00:25.243Z,100138.83
2023-05-14T18:02:55.768Z,100137.73
2023-05-14T18:05:26.543Z,100137.06
2023-05-14T18:07:58.044Z,100132.80
2023-05-14T18:10:29.633Z,100136.66
2023-05-14T18:12:59.977Z,100140.61
2023-05-14T18:15:31.546Z,100135.70
2023-05-14T18:18:02.355Z,100133.77
2023-05-14T18:20:34.766Z,100130.98
2023-05-14T18:23:05.973Z,100124.98
2023-05-14T18:25:36.500Z,100122.58
2023-05-14T18:28:07.268Z,100118.28
2023-05-14T18:30:37.717Z,100117.15
2023-05-14T18:33:08.217Z,100113.39
2023-05-14T18:35:38.619Z,100114.89
2023-05-14T18:38:08.926Z,100114.45
2023-05-14T18:40:39.265Z,100122.17
2023-05-14T18:43:10.811Z,100125.23
2023-05-14T18:45:41.283Z,100122.88
2023-05-14T18:48:12.207Z,100122.85
2023-05-14T18:50:42.785Z,100115.84
2023-05-14T18:53:13.318Z,100117.50
2023-05-14T18:55:43.715Z,100115.63
2023-05-14T18:58:14.569Z,100115.88
2023-05-14T19:00:44.904Z,100116.20
2023-05-14T19:03:15.942Z,100118.29
2023-05-14T19:05:47.182Z,100113.74
2023-05-14T19:08:18.643Z,100114.62
2023-05-14T19:10:49.033Z,100120.61
2023-05-14T19:13:19.664Z,100120.33
2023-05-14T19:15:50.407Z,100128.12
2023-05-14T19:18:20.759Z,100121.73
2023-05-14T19:20:51.891Z,100124.84
2023-05-14T19:23:22.325Z,100122.34
2023-05-14T19:25:52.721Z,100120.45
2023-05-14T19:28:23.249Z,100122.12
2023-05-14T19:30:53.677Z,100108.23
2023-05-14T19:33:24.061Z,100096.08
2023-05-14T19:35:54.455Z,100103.95
2023-05-14T19:38:24.830Z,100109.98
2023-05-14T19:40:56.913Z,100119.25
2023-05-14T19:43:28.163Z,100128.78
2023-05-14T19:46:01.300Z,100130.16
2023-05-14T19:48:32.225Z,100135.41
2023-05-14T19:51:02.887Z,100133.86
2023-05-14T19:53:33.236Z,100139.88
2023-05-14T19:56:03.735Z,100142.05
2023-05-14T19:58:34.090Z,100124.91
2023-05-14T20:01:04.576Z,100102.34
2023-05-14T20:03:35.538Z,100069.71
2023-05-14T20:06:06.648Z,100041.57
2023-05-14T20:08:37.037Z,100046.52
2023-05-14T20:11:07.576Z,100062.05
2023-05-14T20:13:38.275Z,100069.48
2023-05-14T20:16:08.975Z,100068.78
2023-05-14T20:18:39.385Z,100065.05
2023-05-14T20:21:09.824Z,100063.29
2023-05-14T20:23:40.440Z,100064.83
2023-05-14T20:26:10.823Z,100073.52
2023-05-14T20:28:43.430Z,100066.52
2023-05-14T20:31:13.892Z,100061.79
2023-05-14T20:33:44.334Z,100056.92
2023-05-14T20:36:14.784Z,100056.60
2023-05-14T20:38:45.116Z,100053.16
2023-05-14T20:41:15.555Z,100046.09
2023-05-14T20:43:45.979Z,100041.48
2023-05-14T20:46:16.485Z,100036.56
2023-05-14T20:48:47.819Z,100035.52
2023-05-14T20:51:18.204Z,100031.16
2023-05-14T20:53:48.780Z,100032.64
2023-05-14T20:56:19.218Z,100031.62
2023-05-14T20:58:49.586Z,100037.09
2023-05-14T21:01:19.972Z,100037.69
2023-05-14T21:03:50.668Z,100028.92
2023-05-14T21:06:21.188Z,100021.39
2023-05-14T21:08:51.539Z,100020.21
2023-05-14T21:11:23.059Z,100014.66
2023-05-14T21:13:53.718Z,100017.86
2023-05-14T21:16:24.293Z,100013.86
2023-05-14T21:18:54.816Z,100009.46
2023-05-14T21:21:26.065Z,100012.80
2023-05-14T21:23:56.463Z,100015.71
2023-05-14T21:26:27.491Z,100019.33
2023-05-14T21:28:57.904Z,100035.34
2023-05-14T21:31:28.252Z,100057.45
2023-05-14T21:33:58.638Z,100068.77
2023-05-14T21:36:29.083Z,100075.25
2023-05-14T21:38:59.481Z,100081.23
2023-05-14T21:41:29.916Z,100075.85
2023-05-14T21:44:00.336Z,100073.22
2023-05-14T21:46:31.254Z,100067.89
2023-05-14T21:49:01.658Z,100063.23
2023-05-14T21:51:33.099Z,100059.87
2023-05-14T21:54:03.523Z,100058.11
2023-05-14T21:56:36.046Z,100060.10
2023-05-14T21:59:06.510Z,100056.92
2023-05-14T22:01:46.015Z,100055.23
2023-05-14T22:04:21.361Z,100051.54
2023-05-14T22:06:52.038Z,100048.60
2023-05-14T22:09:22.362Z,100044.94
2023-05-14T22:11:52.745Z,100046.23
2023-05-14T22:14:23.160Z,100032.92
2023-05-14T22:16:53.619Z,100027.09
2023-05-14T22:19:24.045Z,100024.55
2023-05-14T22:21:55.014Z,100013.56
2023-05-14T22:24:25.863Z,100008.38
2023-05-14T22:26:58.790Z,100007.74
2023-05-14T22:29:29.091Z,100003.58
2023-05-14T22:31:59.481Z,99997.64
2023-05-14T22:34:29.920Z,99994.71
2023-05-14T22:37:00.307Z,99991.23
2023-05-14T22:39:30.724Z,99983.30
2023-05-14T22:42:01.200Z,99981.48
2023-05-14T22:44:35.427Z,99982.27
2023-05-14T22:47:06.412Z,99982.89
2023-05-14T22:49:37.144Z,99980.02
2023-05-14T22:52:08.670Z,99977.80
2023-05-14T22:54:39.492Z,99971.01
2023-05-14T22:57:09.912Z,99969.11
2023-05-14T22:59:40.385Z,99966.34
2023-05-14T23:02:11.221Z,99968.82
2023-05-14T23:04:43.507Z,99963.95
2023-05-14T23:07:13.991Z,99965.07
2023-05-14T23:09:44.551Z,99962.02
2023-05-14T23:12:14.950Z,99953.38
2023-05-14T23:14:46.056Z,99952.88
2023-05-14T23:17:17.935Z,99948.52
2023-05-14T23:19:48.350Z,99941.89
2023-05-14T23:22:18.748Z,99939.83
2023-05-14T23:24:50.342Z,99934.82
2023-05-14T23:27:22.215Z,99930.48
2023-05-14T23:29:52.595Z,99924.29
2023-05-14T23:32:22.981Z,99922.76
2023-05-14T23:34:53.328Z,99921.59
2023-05-14T23:37:24.342Z,99923.42
2023-05-14T23:39:55.313Z,99917.43
2023-05-14T23:42:25.788Z,99915.88
2023-05-14T23:44:56.188Z,99908.17
2023-05-14T23:47:26.684Z,99902.23
2023-05-14T23:49:57.039Z,99896.67
2023-05-14T23:52:27.507Z,99893.95
2023-05-14T23:54:57.893Z,99884.56
2023-05-14T23:57:28.589Z,99880.23
2023-05-14T23:59:58.929Z,99873.77
